Time;durP1;ratioP1;P1;durP2;ratioP2;P2;SDS_P1;SDS_P2;PMS_P1;PMS_P2;Temp;Humidity;BMP_temperature;BMP_pressure;BME280_temperature;BME280_humidity;BME280_pressure;Samples;Min_cycle;Max_cycle;Signal;HPM_P1;HPM_P2
2022/04/18 00:01:10;;;;;;;12.60;9.27;;;8.10;99.90;;;;;;5134120;27;20034;-74
2022/04/18 00:03:38;;;;;;;14.25;9.88;;;8.10;99.90;;;;;;5107430;27;20043;-73
2022/04/18 00:06:04;;;;;;;13.30;9.30;;;8.00;99.90;;;;;;5132999;27;20035;-73
2022/04/18 00:08:30;;;;;;;13.70;9.23;;;8.00;99.90;;;;;;5110061;27;20265;-73
2022/04/18 00:10:56;;;;;;;15.48;10.65;;;7.90;99.90;;;;;;5113074;27;20031;-73
2022/04/18 00:13:21;;;;;;;16.38;11.00;;;8.00;99.90;;;;;;5084876;27;20039;-74
2022/04/18 00:15:50;;;;;;;14.02;10.65;;;7.90;99.90;;;;;;5109403;27;20065;-73
2022/04/18 00:18:16;;;;;;;16.35;10.73;;;7.90;99.90;;;;;;5126334;27;20042;-73
2022/04/18 00:23:27;;;;;;;14.40;9.27;;;7.90;99.90;;;;;;5125708;27;20039;-73
2022/04/18 00:25:53;;;;;;;15.75;9.93;;;7.80;99.90;;;;;;5130730;27;20094;-73
2022/04/18 00:28:19;;;;;;;14.70;9.88;;;7.80;99.90;;;;;;5126235;27;20027;-73
2022/04/18 00:30:44;;;;;;;15.30;9.73;;;7.70;99.90;;;;;;5108314;27;20027;-73
2022/04/18 00:33:10;;;;;;;15.63;10.27;;;7.70;99.90;;;;;;5132891;27;20301;-73
2022/04/18 00:35:39;;;;;;;13.80;9.57;;;7.60;99.90;;;;;;5125536;27;20037;-74
2022/04/18 00:38:05;;;;;;;15.27;9.55;;;7.70;99.90;;;;;;5129112;27;20310;-74
2022/04/18 00:40:34;;;;;;;16.83;10.48;;;7.50;99.90;;;;;;5134852;27;20064;-73
2022/04/18 00:43:04;;;;;;;13.77;9.18;;;7.50;99.90;;;;;;5102762;27;20030;-73
2022/04/18 00:45:33;;;;;;;13.25;8.98;;;7.50;99.90;;;;;;5136565;27;20039;-73
2022/04/18 00:47:59;;;;;;;14.50;9.68;;;7.50;99.90;;;;;;5124404;27;20039;-73
2022/04/18 00:50:26;;;;;;;15.98;9.15;;;7.50;99.90;;;;;;5124651;27;20043;-73
2022/04/18 00:53:21;;;;;;;13.38;8.50;;;7.50;99.90;;;;;;5110656;27;20052;-73
2022/04/18 00:59:03;;;;;;;14.70;8.93;;;7.50;99.90;;;;;;5112629;27;20032;-73
2022/04/18 01:01:29;;;;;;;16.63;9.98;;;7.50;99.90;;;;;;5115710;27;20027;-73
2022/04/18 01:03:55;;;;;;;14.70;9.32;;;7.50;99.90;;;;;;5129103;27;20347;-73
2022/04/18 01:06:20;;;;;;;15.50;9.88;;;7.50;99.90;;;;;;5113616;27;20388;-73
2022/04/18 01:08:53;;;;;;;14.73;9.57;;;7.50;99.90;;;;;;5136954;27;20035;-73
2022/04/18 01:11:18;;;;;;;13.95;9.00;;;7.40;99.90;;;;;;5112756;27;20232;-72
2022/04/18 01:13:47;;;;;;;14.52;9.90;;;7.40;99.90;;;;;;5094358;27;20027;-73
2022/04/18 01:16:14;;;;;;;14.70;9.35;;;7.40;99.90;;;;;;5107451;27;20031;-72
2022/04/18 01:18:40;;;;;;;17.65;11.15;;;7.30;99.90;;;;;;5125004;27;20099;-73
2022/04/18 01:21:09;;;;;;;17.33;9.98;;;7.20;99.90;;;;;;5145465;27;20037;-73
2022/04/18 01:23:35;;;;;;;17.88;11.70;;;7.30;99.90;;;;;;5110523;27;20034;-73
2022/04/18 01:29:01;;;;;;;19.48;10.15;;;7.10;99.90;;;;;;5110823;27;20038;-73
2022/04/18 01:31:50;;;;;;;18.77;10.13;;;7.00;99.90;;;;;;5107240;27;20043;-73
2022/04/18 01:34:16;;;;;;;17.27;10.32;;;7.10;99.90;;;;;;5093568;27;20033;-73
2022/04/18 01:36:45;;;;;;;16.67;11.00;;;7.00;99.90;;;;;;5079669;27;20046;-73
2022/04/18 01:39:10;;;;;;;19.02;10.07;;;7.00;99.90;;;;;;5110828;27;20019;-73
2022/04/18 01:41:36;;;;;;;17.88;10.10;;;7.00;99.90;;;;;;5138569;27;20027;-73
2022/04/18 01:44:02;;;;;;;20.73;11.05;;;7.00;99.90;;;;;;5123549;27;20252;-72
2022/04/18 01:46:27;;;;;;;15.95;10.55;;;7.00;99.90;;;;;;5126470;27;20031;-72
2022/04/18 01:48:53;;;;;;;15.70;10.18;;;6.90;99.90;;;;;;5125847;27;20431;-73
2022/04/18 01:51:19;;;;;;;15.43;10.02;;;6.90;99.90;;;;;;5107169;27;20051;-73
2022/04/18 01:53:46;;;;;;;17.77;10.88;;;6.90;99.90;;;;;;5079551;27;20090;-73
2022/04/18 01:56:12;;;;;;;15.48;10.55;;;6.90;99.90;;;;;;5121247;27;20050;-73
2022/04/18 01:58:37;;;;;;;18.58;12.18;;;6.90;99.90;;;;;;5096147;27;20085;-73
2022/04/18 02:01:03;;;;;;;15.02;10.98;;;6.80;99.90;;;;;;5105891;27;20054;-73
2022/04/18 02:03:29;;;;;;;15.38;10.48;;;6.80;99.90;;;;;;5104725;27;20093;-73
2022/04/18 02:05:55;;;;;;;16.92;10.88;;;6.90;99.90;;;;;;5127629;27;20295;-73
2022/04/18 02:08:24;;;;;;;19.23;12.23;;;6.80;99.90;;;;;;5138410;27;20053;-73
2022/04/18 02:10:50;;;;;;;15.05;10.60;;;6.80;99.90;;;;;;5124000;27;20103;-73
2022/04/18 02:13:16;;;;;;;16.58;10.98;;;6.80;99.90;;;;;;5117137;27;20059;-73
2022/04/18 02:15:42;;;;;;;17.13;10.60;;;6.80;99.90;;;;;;5106995;27;20042;-73
2022/04/18 02:18:08;;;;;;;18.73;11.02;;;6.80;99.90;;;;;;5114147;27;20086;-74
2022/04/18 02:20:34;;;;;;;17.33;10.90;;;6.80;99.90;;;;;;5122720;27;20076;-74
2022/04/18 02:23:00;;;;;;;16.67;11.02;;;6.70;99.90;;;;;;5107180;28;20035;-73
2022/04/18 02:25:25;;;;;;;14.77;9.40;;;6.70;99.90;;;;;;5105659;27;20058;-73
2022/04/18 02:27:54;;;;;;;15.88;10.15;;;7.30;99.90;;;;;;5124235;27;20034;-73
2022/04/18 02:30:19;;;;;;;16.60;10.20;;;6.70;99.90;;;;;;5109870;27;20098;-73
2022/04/18 02:32:48;;;;;;;16.02;10.75;;;6.60;99.90;;;;;;5109852;28;20072;-73
2022/04/18 02:35:18;;;;;;;15.82;10.20;;;6.60;99.90;;;;;;5141289;27;20035;-72
2022/04/18 02:37:44;;;;;;;17.10;10.40;;;6.60;99.90;;;;;;5126921;27;20030;-72
2022/04/18 02:40:11;;;;;;;18.17;10.88;;;6.50;99.90;;;;;;5121409;27;20031;-73
2022/04/18 02:42:43;;;;;;;15.63;11.18;;;6.50;99.90;;;;;;5139965;27;20314;-74
2022/04/18 02:45:11;;;;;;;15.70;11.20;;;6.50;99.90;;;;;;5114339;27;20105;-73
2022/04/18 02:47:37;;;;;;;16.10;10.95;;;6.50;99.90;;;;;;5139042;27;20101;-73
2022/04/18 02:50:03;;;;;;;16.80;11.75;;;6.50;99.90;;;;;;5108999;27;20030;-73
2022/04/18 02:52:30;;;;;;;16.02;10.43;;;6.40;99.90;;;;;;5112488;27;20318;-74
2022/04/18 02:54:55;;;;;;;16.40;10.30;;;6.40;99.90;;;;;;5128107;27;20027;-72
2022/04/18 02:57:30;;;;;;;16.75;11.10;;;6.40;99.90;;;;;;5106318;28;20052;-72
2022/04/18 03:00:21;;;;;;;19.58;11.75;;;6.40;99.90;;;;;;5101829;27;20061;-73
2022/04/18 03:03:03;;;;;;;19.42;12.23;;;6.30;99.90;;;;;;5090909;28;20172;-73
2022/04/18 03:05:28;;;;;;;17.10;10.68;;;6.30;99.90;;;;;;5123944;28;20031;-73
2022/04/18 03:07:54;;;;;;;17.42;11.27;;;6.20;99.90;;;;;;5124517;28;20092;-73
2022/04/18 03:11:02;;;;;;;17.02;11.70;;;6.20;99.90;;;;;;5119183;27;20055;-73
2022/04/18 03:13:06;;;;;;;17.50;11.90;;;6.30;99.90;;;;;;5126530;27;20049;-73
2022/04/18 03:15:31;;;;;;;19.35;12.27;;;6.20;99.90;;;;;;5127328;27;20019;-73
2022/04/18 03:17:57;;;;;;;16.63;11.10;;;6.20;99.90;;;;;;5131614;27;20027;-73
2022/04/18 03:20:23;;;;;;;18.75;12.07;;;6.20;99.90;;;;;;5116001;27;20034;-73
2022/04/18 03:22:48;;;;;;;17.33;11.07;;;6.20;99.90;;;;;;5122238;27;20076;-73
2022/04/18 03:25:14;;;;;;;19.85;12.55;;;6.20;99.90;;;;;;5088408;28;20050;-73
2022/04/18 03:27:40;;;;;;;18.73;12.13;;;6.10;99.90;;;;;;5106752;28;20039;-72
2022/04/18 03:30:06;;;;;;;15.82;9.98;;;6.10;99.90;;;;;;5110640;27;20353;-72
2022/04/18 03:32:32;;;;;;;17.67;12.15;;;6.10;99.90;;;;;;5126808;27;20338;-72
2022/04/18 03:34:57;;;;;;;16.77;11.18;;;6.10;99.90;;;;;;5109675;28;20032;-73
2022/04/18 03:40:08;;;;;;;16.85;11.48;;;6.00;99.90;;;;;;5110565;27;20043;-73
2022/04/18 03:42:34;;;;;;;18.05;11.95;;;6.00;99.90;;;;;;5123313;27;20027;-73
2022/04/18 03:45:05;;;;;;;20.70;12.55;;;6.00;99.90;;;;;;5107251;28;20370;-73
2022/04/18 03:47:31;;;;;;;17.02;12.13;;;6.00;99.90;;;;;;5122325;27;20066;-73
2022/04/18 03:49:57;;;;;;;17.05;11.00;;;6.00;99.90;;;;;;5104704;28;20024;-73
2022/04/18 03:52:24;;;;;;;18.67;12.40;;;6.00;99.90;;;;;;5107824;28;20031;-73
2022/04/18 03:54:50;;;;;;;15.88;11.00;;;6.00;99.90;;;;;;5141327;27;20055;-73
2022/04/18 03:57:16;;;;;;;16.20;10.50;;;6.00;99.90;;;;;;5126008;27;20220;-73
2022/04/18 03:59:42;;;;;;;18.50;10.65;;;6.00;99.90;;;;;;5126571;27;20240;-73
2022/04/18 04:02:08;;;;;;;16.42;11.43;;;6.40;99.90;;;;;;5088056;28;20284;-73
2022/04/18 04:04:35;;;;;;;17.08;10.40;;;6.00;99.90;;;;;;5100374;27;20027;-74
2022/04/18 04:07:01;;;;;;;16.30;10.48;;;6.50;99.90;;;;;;5143692;27;20031;-73
2022/04/18 04:09:27;;;;;;;16.30;10.95;;;6.00;99.90;;;;;;5109943;28;20203;-73
2022/04/18 04:11:52;;;;;;;18.98;11.40;;;5.90;99.90;;;;;;5108472;28;20036;-73
2022/04/18 04:14:20;;;;;;;17.33;11.35;;;6.10;99.90;;;;;;5109440;27;20037;-74
2022/04/18 04:16:46;;;;;;;16.80;11.27;;;5.90;99.90;;;;;;5096205;28;20034;-74
2022/04/18 04:19:11;;;;;;;18.42;11.70;;;6.00;99.90;;;;;;5121234;27;20027;-74
2022/04/18 04:21:37;;;;;;;16.33;12.00;;;5.90;99.90;;;;;;5122639;27;20042;-74
2022/04/18 04:24:03;;;;;;;17.13;11.55;;;5.90;99.90;;;;;;5110433;28;20038;-74
2022/04/18 04:26:29;;;;;;;18.23;11.10;;;5.80;99.90;;;;;;5115310;28;20049;-74
2022/04/18 04:28:55;;;;;;;18.50;11.57;;;5.90;99.90;;;;;;5112421;28;20321;-74
2022/04/18 04:31:20;;;;;;;17.85;10.98;;;5.80;99.90;;;;;;5106943;28;20042;-74
2022/04/18 04:33:46;;;;;;;15.77;11.27;;;5.90;99.90;;;;;;5073168;27;20027;-73
2022/04/18 04:36:12;;;;;;;14.55;10.70;;;6.10;99.90;;;;;;5105686;27;20027;-74
2022/04/18 04:38:38;;;;;;;16.17;10.63;;;5.80;99.90;;;;;;5135093;27;20088;-73
2022/04/18 04:41:04;;;;;;;16.05;9.80;;;5.80;99.90;;;;;;5136608;27;20035;-74
2022/04/18 04:43:29;;;;;;;18.70;10.10;;;5.80;99.90;;;;;;5107604;28;20027;-73
2022/04/18 04:45:56;;;;;;;15.60;10.15;;;5.80;99.90;;;;;;5130009;27;20031;-74
2022/04/18 04:48:25;;;;;;;15.52;10.00;;;5.80;99.90;;;;;;5121145;27;20036;-74
2022/04/18 04:50:51;;;;;;;17.88;10.77;;;6.10;99.90;;;;;;5104759;28;20031;-74
2022/04/18 04:53:17;;;;;;;14.48;10.77;;;5.70;99.90;;;;;;5124701;27;20099;-74
2022/04/18 04:55:42;;;;;;;14.25;10.68;;;5.70;99.90;;;;;;5128495;27;20076;-74
2022/04/18 04:58:09;;;;;;;14.60;9.65;;;5.70;99.90;;;;;;5106966;28;20031;-74
2022/04/18 05:00:35;;;;;;;14.73;10.10;;;5.80;99.90;;;;;;5118311;28;20039;-74
2022/04/18 05:03:02;;;;;;;13.75;9.32;;;5.80;99.90;;;;;;5104719;28;20106;-73
2022/04/18 05:05:28;;;;;;;14.73;9.35;;;5.80;99.90;;;;;;5107445;27;20494;-74
2022/04/18 05:07:55;;;;;;;14.43;9.73;;;5.80;99.90;;;;;;5125508;27;20054;-74
2022/04/18 05:10:21;;;;;;;13.68;9.18;;;5.80;99.90;;;;;;5125037;27;20167;-73
2022/04/18 05:12:47;;;;;;;13.77;9.43;;;6.10;99.90;;;;;;5100347;28;20043;-73
2022/04/18 05:15:12;;;;;;;14.50;9.13;;;5.90;99.90;;;;;;5154453;27;20035;-72
2022/04/18 05:17:53;;;;;;;15.15;9.30;;;6.00;99.90;;;;;;5141495;27;20059;-72
2022/04/18 05:20:19;;;;;;;11.85;8.32;;;5.90;99.90;;;;;;5084858;27;20024;-72
2022/04/18 05:22:45;;;;;;;13.35;9.43;;;6.00;99.90;;;;;;5104132;28;20051;-72
2022/04/18 05:25:10;;;;;;;12.48;8.93;;;6.10;99.90;;;;;;5108769;28;20032;-72
2022/04/18 05:27:37;;;;;;;11.48;8.90;;;6.30;99.90;;;;;;5136389;27;20072;-71
2022/04/18 05:30:04;;;;;;;14.00;9.23;;;6.30;99.90;;;;;;5119752;27;20063;-71
2022/04/18 05:32:29;;;;;;;14.27;9.50;;;6.30;99.90;;;;;;5131566;27;20114;-71
2022/04/18 05:35:06;;;;;;;12.82;9.02;;;6.40;99.90;;;;;;5128943;27;20046;-71
2022/04/18 05:37:34;;;;;;;15.02;10.05;;;6.40;99.90;;;;;;5122722;27;20314;-72
2022/04/18 05:40:00;;;;;;;15.88;9.73;;;6.50;99.90;;;;;;5121503;27;20039;-72
2022/04/18 05:42:25;;;;;;;14.05;10.15;;;6.50;99.90;;;;;;5099708;28;20027;-72
2022/04/18 05:44:51;;;;;;;13.65;9.43;;;6.60;99.90;;;;;;5107832;27;20104;-72
2022/04/18 05:47:16;;;;;;;15.02;9.68;;;6.70;99.90;;;;;;5123059;27;20042;-71
2022/04/18 05:49:42;;;;;;;13.45;9.88;;;6.80;99.90;;;;;;5112454;28;20044;-72
2022/04/18 05:52:19;;;;;;;13.15;8.70;;;6.90;99.90;;;;;;5105436;27;20195;-73
2022/04/18 05:54:45;;;;;;;14.13;9.75;;;7.00;99.90;;;;;;5102041;28;20051;-72
2022/04/18 05:57:35;;;;;;;12.45;9.43;;;7.10;99.90;;;;;;5104044;28;20054;-73
2022/04/18 06:00:02;;;;;;;13.50;10.30;;;7.20;99.90;;;;;;5104602;27;20054;-73
2022/04/18 06:02:28;;;;;;;13.40;9.20;;;7.30;99.90;;;;;;5116371;28;20040;-73
2022/04/18 06:04:56;;;;;;;15.35;10.20;;;7.40;99.90;;;;;;5118214;27;20103;-73
2022/04/18 06:07:22;;;;;;;15.90;10.63;;;7.50;99.90;;;;;;5103044;27;20091;-73
2022/04/18 06:09:48;;;;;;;15.88;10.13;;;7.50;99.90;;;;;;5114409;27;20035;-73
2022/04/18 06:12:19;;;;;;;13.38;9.48;;;7.60;99.90;;;;;;5103748;28;20027;-73
2022/04/18 06:14:48;;;;;;;12.55;8.77;;;7.80;99.90;;;;;;5106655;27;20023;-74
2022/04/18 06:17:14;;;;;;;15.30;10.02;;;7.50;99.90;;;;;;5103896;28;20097;-73
2022/04/18 06:19:39;;;;;;;15.35;9.57;;;8.00;99.90;;;;;;5103701;27;20043;-73
2022/04/18 06:22:05;;;;;;;13.48;7.88;;;8.10;99.90;;;;;;5102774;28;20120;-74
2022/04/18 06:24:31;;;;;;;13.18;9.43;;;8.20;99.90;;;;;;5120227;28;20318;-73
2022/04/18 06:26:56;;;;;;;14.35;9.25;;;8.30;99.90;;;;;;5114740;27;20028;-73
2022/04/18 06:29:25;;;;;;;14.70;10.13;;;8.40;99.90;;;;;;5101126;27;20061;-73
2022/04/18 06:31:53;;;;;;;13.93;8.52;;;8.50;99.90;;;;;;5108510;27;20031;-72
2022/04/18 06:34:20;;;;;;;12.65;8.68;;;8.70;99.90;;;;;;5120981;27;20038;-72
2022/04/18 06:36:48;;;;;;;14.70;9.48;;;8.80;99.90;;;;;;5126252;27;20024;-72
2022/04/18 06:39:14;;;;;;;11.35;7.85;;;9.00;99.90;;;;;;5120355;28;20061;-72
2022/04/18 06:41:39;;;;;;;11.27;7.85;;;9.20;99.90;;;;;;5123782;27;20059;-73
2022/04/18 06:44:05;;;;;;;13.07;8.57;;;9.20;99.90;;;;;;5094561;27;20098;-73
2022/04/18 06:46:31;;;;;;;10.80;8.10;;;9.30;99.90;;;;;;5140858;27;20035;-73
2022/04/18 06:48:57;;;;;;;12.30;8.75;;;9.40;99.90;;;;;;5152257;27;20031;-73
2022/04/18 06:51:23;;;;;;;12.40;8.50;;;9.50;99.90;;;;;;5114882;28;20024;-74
2022/04/18 06:53:48;;;;;;;12.18;8.18;;;9.70;99.90;;;;;;5094235;28;20035;-72
2022/04/18 06:59:20;;;;;;;13.45;8.68;;;10.00;99.90;;;;;;5112048;28;20087;-72
2022/04/18 07:01:46;;;;;;;11.50;7.57;;;10.20;99.90;;;;;;5085884;28;20055;-72
2022/04/18 07:04:13;;;;;;;13.68;8.35;;;10.40;99.90;;;;;;5099522;28;20073;-72
2022/04/18 07:06:40;;;;;;;9.77;8.02;;;10.50;99.90;;;;;;5118510;28;20045;-72
2022/04/18 07:09:05;;;;;;;9.10;6.78;;;10.70;99.90;;;;;;5121201;27;20042;-72
2022/04/18 07:11:31;;;;;;;10.63;8.02;;;10.70;99.90;;;;;;5117256;27;20027;-72
2022/04/18 07:13:57;;;;;;;9.98;7.43;;;11.00;99.90;;;;;;5121335;27;20105;-72
2022/04/18 07:17:14;;;;;;;8.70;6.60;;;11.10;99.90;;;;;;5153222;27;20034;-72
2022/04/18 07:19:39;;;;;;;;;;;11.30;99.90;;;;;;5133439;27;20102;-73
2022/04/18 07:22:05;;;;;;;12.90;7.40;;;11.40;99.90;;;;;;5119503;28;19926;-74
2022/04/18 07:24:31;;;;;;;11.23;7.78;;;11.30;99.50;;;;;;5120488;27;20322;-72
2022/04/18 07:27:00;;;;;;;8.80;6.57;;;11.40;98.90;;;;;;5118898;27;20042;-72
2022/04/18 07:29:27;;;;;;;11.10;7.60;;;11.50;98.70;;;;;;5090221;28;20097;-72
2022/04/18 07:31:53;;;;;;;11.88;8.20;;;11.70;99.20;;;;;;5122488;27;20326;-71
2022/04/18 07:34:19;;;;;;;10.07;6.85;;;11.60;99.50;;;;;;5109244;27;20031;-72
2022/04/18 07:36:44;;;;;;;9.25;7.50;;;11.70;99.20;;;;;;5136094;27;20126;-73
2022/04/18 07:39:10;;;;;;;11.07;8.13;;;11.70;99.20;;;;;;5106091;28;20027;-73
2022/04/18 07:41:36;;;;;;;10.50;7.18;;;11.60;98.50;;;;;;5123169;27;20051;-73
2022/04/18 07:44:04;;;;;;;8.85;7.03;;;11.90;99.20;;;;;;5111431;27;20024;-73
2022/04/18 07:46:31;;;;;;;11.68;7.28;;;11.70;98.90;;;;;;5107854;27;20152;-73
2022/04/18 07:48:57;;;;;;;11.05;8.43;;;12.00;99.30;;;;;;5122869;27;20285;-73
2022/04/18 07:51:34;;;;;;;12.48;7.82;;;12.10;99.20;;;;;;5125299;27;20031;-73
2022/04/18 07:54:06;;;;;;;12.82;7.30;;;12.20;98.80;;;;;;5122325;28;20036;-73
2022/04/18 07:56:33;;;;;;;10.35;7.82;;;12.30;99.30;;;;;;5107080;28;20035;-73
2022/04/18 07:58:59;;;;;;;10.57;7.95;;;12.40;99.00;;;;;;5121240;27;20043;-73
2022/04/18 08:01:25;;;;;;;11.65;7.15;;;12.50;99.40;;;;;;5091482;28;20119;-71
2022/04/18 08:03:51;;;;;;;8.93;6.72;;;12.70;97.20;;;;;;5138537;27;20027;-71
2022/04/18 08:06:17;;;;;;;10.20;7.00;;;12.70;95.60;;;;;;5114805;27;20229;-72
2022/04/18 08:08:43;;;;;;;11.88;7.97;;;12.70;94.60;;;;;;5105761;27;20353;-73
2022/04/18 08:11:14;;;;;;;8.77;6.85;;;12.80;94.80;;;;;;5105838;28;20043;-73
2022/04/18 08:13:41;;;;;;;10.02;7.95;;;12.90;94.30;;;;;;5103046;28;20042;-73
2022/04/18 08:16:07;;;;;;;9.32;7.22;;;12.80;93.80;;;;;;5129834;27;20234;-73
2022/04/18 08:18:36;;;;;;;10.25;7.63;;;13.10;92.40;;;;;;5097960;27;20031;-73
2022/04/18 08:21:26;;;;;;;10.48;6.90;;;13.40;93.70;;;;;;5122465;27;20071;-73
2022/04/18 08:23:54;;;;;;;9.70;7.47;;;13.40;87.40;;;;;;5121105;27;20046;-74
2022/04/18 08:26:21;;;;;;;7.93;6.38;;;13.50;89.80;;;;;;5103353;28;20272;-73
2022/04/18 08:28:47;;;;;;;9.88;6.28;;;13.50;87.50;;;;;;5104798;28;20035;-73
2022/04/18 08:31:12;;;;;;;8.88;6.68;;;13.70;83.60;;;;;;5117212;27;20057;-72
2022/04/18 08:33:39;;;;;;;7.38;5.93;;;13.60;82.40;;;;;;5117674;27;20123;-72
2022/04/18 08:36:05;;;;;;;10.00;6.72;;;13.80;81.70;;;;;;5107459;27;20027;-71
2022/04/18 08:38:47;;;;;;;8.10;6.30;;;13.70;79.00;;;;;;5132538;27;20072;-72
2022/04/18 08:41:16;;;;;;;8.65;6.60;;;13.70;75.80;;;;;;5105353;27;20030;-72
2022/04/18 08:43:44;;;;;;;9.23;6.82;;;13.80;76.10;;;;;;5115680;27;20038;-73
2022/04/18 08:46:11;;;;;;;9.32;6.85;;;13.90;76.80;;;;;;5118867;27;20124;-72
2022/04/18 08:52:43;;;;;;;10.02;7.10;;;14.20;76.10;;;;;;5095896;27;20067;-71
2022/04/18 08:54:28;;;;;;;7.78;6.18;;;14.30;77.10;;;;;;5117523;28;20048;-71
2022/04/18 08:56:59;;;;;;;8.43;7.00;;;14.40;74.80;;;;;;5123500;27;20039;-71
2022/04/18 08:59:31;;;;;;;8.43;6.40;;;14.60;76.40;;;;;;5077430;27;20333;-72
2022/04/18 09:02:23;;;;;;;8.55;6.60;;;14.70;76.70;;;;;;5110105;27;20074;-71
2022/04/18 09:04:53;;;;;;;8.25;6.35;;;14.90;73.70;;;;;;5092268;27;20079;-72
2022/04/18 09:07:22;;;;;;;7.90;6.00;;;15.00;73.10;;;;;;5139994;27;20221;-73
2022/04/18 09:09:54;;;;;;;8.63;6.35;;;15.30;74.90;;;;;;5125546;27;20031;-72
2022/04/18 09:12:23;;;;;;;7.85;5.60;;;15.20;69.60;;;;;;5112227;27;20043;-72
2022/04/18 09:14:50;;;;;;;7.78;5.80;;;15.60;71.50;;;;;;5120377;27;20088;-72
2022/04/18 09:17:32;;;;;;;7.30;6.00;;;15.70;69.10;;;;;;5089529;27;20062;-72
2022/04/18 09:20:09;;;;;;;7.03;5.82;;;15.80;69.70;;;;;;5122625;27;20074;-72
2022/04/18 09:22:48;;;;;;;9.35;6.32;;;15.80;67.10;;;;;;5115327;27;20031;-72
2022/04/18 09:25:21;;;;;;;7.65;5.85;;;15.80;64.60;;;;;;5144170;27;20112;-72
2022/04/18 09:27:49;;;;;;;10.13;6.40;;;16.20;66.90;;;;;;5120709;27;20038;-73
2022/04/18 09:30:18;;;;;;;7.88;6.00;;;16.10;65.40;;;;;;5123833;27;20050;-72
2022/04/18 09:33:03;;;;;;;7.93;6.30;;;16.30;64.80;;;;;;5095802;27;20034;-73
2022/04/18 09:35:30;;;;;;;6.20;5.00;;;16.50;62.30;;;;;;5106819;27;20306;-73
2022/04/18 09:38:01;;;;;;;7.75;5.97;;;16.50;59.70;;;;;;5114603;27;20227;-73
2022/04/18 09:40:27;;;;;;;9.48;5.95;;;16.80;55.80;;;;;;5120318;27;20050;-73
2022/04/18 09:42:56;;;;;;;7.38;5.60;;;16.90;57.90;;;;;;5132730;27;20317;-73
2022/04/18 09:45:23;;;;;;;8.65;5.80;;;17.40;58.60;;;;;;5089574;27;20070;-73
2022/04/18 09:48:03;;;;;;;10.48;5.93;;;17.30;54.60;;;;;;5123686;27;20038;-72
2022/04/18 09:53:24;;;;;;;6.50;5.00;;;17.50;53.50;;;;;;5135030;27;20039;-73
2022/04/18 09:55:55;;;;;;;9.98;7.03;;;18.20;52.00;;;;;;5128353;27;20066;-73
2022/04/18 09:58:22;;;;;;;9.00;6.45;;;17.90;51.60;;;;;;5117888;27;20276;-73
2022/04/18 10:00:52;;;;;;;5.95;4.47;;;18.00;52.50;;;;;;5115079;27;20054;-72
2022/04/18 10:03:18;;;;;;;6.57;5.55;;;17.90;50.60;;;;;;5116343;27;20247;-72
2022/04/18 10:05:45;;;;;;;6.65;5.65;;;17.70;49.70;;;;;;5116592;27;20050;-72
2022/04/18 10:08:11;;;;;;;7.68;5.47;;;18.20;51.50;;;;;;5130617;27;20035;-73
2022/04/18 10:10:41;;;;;;;8.63;5.53;;;18.70;51.20;;;;;;5103543;27;20038;-73
2022/04/18 10:13:10;;;;;;;5.38;4.85;;;19.00;50.80;;;;;;5132682;27;20318;-74
2022/04/18 10:15:37;;;;;;;7.50;5.75;;;18.40;45.80;;;;;;5102350;27;20102;-72
2022/04/18 10:18:05;;;;;;;7.18;5.43;;;18.10;47.40;;;;;;5105317;27;20255;-72
2022/04/18 10:20:57;;;;;;;7.13;6.40;;;18.60;51.00;;;;;;5120683;27;20221;-73
2022/04/18 10:23:48;;;;;;;7.03;5.88;;;18.80;47.10;;;;;;5114646;27;20081;-72
2022/04/18 10:26:38;;;;;;;6.47;5.32;;;19.10;49.10;;;;;;5120973;27;20039;-74
2022/04/18 10:29:26;;;;;;;6.00;4.97;;;19.40;45.20;;;;;;5133645;27;20455;-72
2022/04/18 10:31:57;;;;;;;7.90;5.20;;;19.10;41.20;;;;;;5092485;28;20244;-72
2022/04/18 10:34:23;;;;;;;6.55;5.25;;;19.00;44.30;;;;;;5116726;27;20035;-72
2022/04/18 10:36:54;;;;;;;5.93;5.30;;;19.40;45.10;;;;;;5100314;27;20271;-73
2022/04/18 10:39:20;;;;;;;5.32;4.75;;;18.90;43.30;;;;;;5104868;28;20096;-72
2022/04/18 10:41:47;;;;;;;7.78;5.32;;;19.30;43.00;;;;;;5109466;27;20259;-72
2022/04/18 10:44:18;;;;;;;5.22;4.47;;;19.50;43.80;;;;;;5137465;27;20043;-72
2022/04/18 10:46:53;;;;;;;4.97;4.47;;;19.50;39.40;;;;;;5133630;27;20281;-72
2022/04/18 10:49:23;;;;;;;5.60;5.07;;;19.70;39.90;;;;;;5137423;27;20051;-72
2022/04/18 10:51:55;;;;;;;6.70;5.03;;;19.80;39.30;;;;;;5120084;27;20319;-72
2022/04/18 10:54:30;;;;;;;6.47;5.03;;;19.40;36.20;;;;;;5083402;28;20035;-72
2022/04/18 10:58:17;;;;;;;7.13;4.55;;;19.30;35.80;;;;;;5085984;28;20074;-73
2022/04/18 11:00:54;;;;;;;5.78;4.55;;;20.10;37.50;;;;;;5061562;28;20048;-73
2022/04/18 11:04:00;;;;;;;4.88;4.30;;;20.20;39.30;;;;;;5095445;28;20230;-72
2022/04/18 11:06:26;;;;;;;4.85;4.35;;;20.10;35.50;;;;;;5081550;28;20293;-72
2022/04/18 11:09:24;;;;;;;7.10;5.20;;;20.30;37.10;;;;;;5100467;28;20043;-74
2022/04/18 11:11:54;;;;;;;6.20;5.00;;;20.30;35.40;;;;;;5094139;28;20118;-74
2022/04/18 11:14:25;;;;;;;5.63;4.90;;;20.10;34.80;;;;;;5097084;28;20354;-73
2022/04/18 11:17:00;;;;;;;5.50;4.53;;;19.60;33.20;;;;;;5098774;28;20399;-73
2022/04/18 11:19:30;;;;;;;5.55;4.93;;;19.80;33.40;;;;;;5117079;28;20039;-73
2022/04/18 11:22:00;;;;;;;5.25;4.35;;;19.50;33.60;;;;;;5099161;28;20031;-74
2022/04/18 11:24:42;;;;;;;5.35;4.85;;;20.10;34.60;;;;;;5117069;28;20099;-74
2022/04/18 11:27:15;;;;;;;4.50;4.10;;;19.90;35.70;;;;;;5106979;28;20036;-73
2022/04/18 11:29:53;;;;;;;5.97;4.28;;;20.10;36.20;;;;;;5096293;28;20043;-73
2022/04/18 11:32:21;;;;;;;5.50;4.22;;;19.80;30.00;;;;;;5098545;28;20548;-73
2022/04/18 11:34:52;;;;;;;5.20;4.13;;;19.50;30.00;;;;;;5094617;28;20040;-73
2022/04/18 11:37:26;;;;;;;4.63;4.03;;;20.00;32.90;;;;;;5095917;28;20113;-73
2022/04/18 11:39:56;;;;;;;4.80;4.28;;;20.00;29.60;;;;;;5127677;27;20047;-73
2022/04/18 11:42:27;;;;;;;5.57;3.88;;;20.20;32.20;;;;;;5112951;28;20040;-73
2022/04/18 11:44:55;;;;;;;5.40;4.35;;;20.00;32.70;;;;;;5112828;28;20081;-73
2022/04/18 11:47:23;;;;;;;6.03;5.05;;;19.90;29.90;;;;;;5107742;28;20109;-73
2022/04/18 11:49:54;;;;;;;4.90;4.30;;;19.90;30.30;;;;;;5092149;28;20047;-73
2022/04/18 11:52:24;;;;;;;4.60;4.05;;;20.00;31.30;;;;;;5100388;28;20330;-73
2022/04/18 11:54:59;;;;;;;4.88;4.30;;;20.00;29.40;;;;;;5094952;28;20081;-72
2022/04/18 11:57:52;;;;;;;;;;;;;;;;;;;;;
2022/04/18 12:08:48;;;;;;;6.90;4.07;;;20.00;29.70;;;;;;5105141;27;20047;-73
2022/04/18 12:11:15;;;;;;;4.25;3.85;;;20.10;30.80;;;;;;5119625;27;20221;-73
2022/04/18 12:13:46;;;;;;;5.00;4.30;;;19.90;29.30;;;;;;5134740;27;20042;-73
2022/04/18 12:16:12;;;;;;;4.40;4.00;;;19.70;29.40;;;;;;5119866;27;20035;-74
2022/04/18 12:18:38;;;;;;;4.85;4.13;;;20.40;29.90;;;;;;5102570;27;20039;-72
2022/04/18 12:21:03;;;;;;;4.22;3.83;;;19.80;28.30;;;;;;5118731;27;20039;-73
2022/04/18 12:23:29;;;;;;;4.82;4.03;;;20.60;29.00;;;;;;5112225;27;20031;-73
2022/04/18 12:25:59;;;;;;;4.78;4.28;;;20.10;28.50;;;;;;5135761;27;20035;-73
2022/04/18 12:28:32;;;;;;;5.88;4.30;;;20.30;28.90;;;;;;5140211;27;20325;-72
2022/04/18 12:30:58;;;;;;;4.78;3.83;;;20.10;29.00;;;;;;5119560;27;20043;-73
2022/04/18 12:33:25;;;;;;;4.40;4.00;;;20.50;29.80;;;;;;5129050;27;20038;-73
2022/04/18 12:35:58;;;;;;;5.05;4.28;;;20.80;28.80;;;;;;5113593;27;20104;-72
2022/04/18 12:38:35;;;;;;;4.72;3.78;;;20.60;28.20;;;;;;5118818;27;20039;-73
2022/04/18 12:41:04;;;;;;;6.00;4.78;;;20.40;27.30;;;;;;5123615;27;20042;-73
2022/04/18 12:43:32;;;;;;;4.70;4.20;;;20.30;29.00;;;;;;5139772;27;20101;-73
2022/04/18 12:46:02;;;;;;;6.15;5.10;;;20.60;28.80;;;;;;5111621;27;20043;-73
2022/04/18 12:48:32;;;;;;;4.75;4.35;;;20.30;27.50;;;;;;5118663;27;20063;-73
2022/04/18 12:51:05;;;;;;;4.32;3.67;;;20.50;29.60;;;;;;5133266;27;20043;-73
2022/04/18 12:53:47;;;;;;;4.10;3.70;;;21.00;29.10;;;;;;5120037;27;20121;-73
2022/04/18 12:56:20;;;;;;;5.82;4.30;;;21.10;29.10;;;;;;5104426;27;20336;-73
2022/04/18 12:59:01;;;;;;;5.53;5.00;;;20.80;27.20;;;;;;5139401;27;20066;-72
2022/04/18 13:02:05;;;;;;;6.30;4.63;;;20.60;27.20;;;;;;5101232;27;20051;-72
2022/04/18 13:04:39;;;;;;;5.30;4.35;;;21.60;28.90;;;;;;5094594;27;20238;-73
2022/04/18 13:07:07;;;;;;;5.38;4.60;;;21.30;27.20;;;;;;5138889;27;20038;-73
2022/04/18 13:09:33;;;;;;;5.03;4.20;;;21.50;29.90;;;;;;5128978;27;20320;-73
2022/04/18 13:12:07;;;;;;;6.50;4.65;;;20.80;27.80;;;;;;5118099;27;20026;-73
2022/04/18 13:14:34;;;;;;;;;;;21.10;28.00;;;;;;5137191;27;20117;-73
2022/04/18 13:17:07;;;;;;;4.75;4.25;;;21.90;29.80;;;;;;5116331;27;20040;-73
2022/04/18 13:19:35;;;;;;;4.22;3.80;;;22.20;30.10;;;;;;5138688;27;20633;-72
2022/04/18 13:22:01;;;;;;;4.88;4.25;;;22.30;29.80;;;;;;5127052;27;20042;-73
2022/04/18 13:24:27;;;;;;;4.90;3.97;;;22.30;29.60;;;;;;5109956;27;20107;-73
2022/04/18 13:26:52;;;;;;;9.05;4.15;;;22.10;28.90;;;;;;5104070;27;20066;-72